Spring, Texas
Current Conditions -  °F | °C
As of 8:53 PM on Sunday 23 Nov 2014 (Local Time) from KDWH Reporting Station
Clear Clear  
Wind Chill: 67°   Ceiling: Unl
Heat Index: 67°   Visibility: 10mi
Dew Point: 57°   Wind: 7mph
Humidity: 70%   Direction: 220°SW
Pressure: 29.65"   Gusts: NA
Location:  30.08°N, 95.42°W
Report Text: KDWH 240253Z AUTO 22006KT 10SM CLR 19/14 A2965 RMK AO2 SLP037 T01940139 51028 TSNO
Loading
Personal Weather Stations






























Interactive Weather Map New forecast layout! Learn more

10-Day Weather Forecast

Advertisements
Track Severe Weather on mobile